Time;durP1;ratioP1;P1;durP2;ratioP2;P2;SDS_P1;SDS_P2;PMS_P1;PMS_P2;Temp;Humidity;BMP_temperature;BMP_pressure;BME280_temperature;BME280_humidity;BME280_pressure;Samples;Min_cycle;Max_cycle;Signal;HPM_P1;HPM_P2
2022/11/09 00:00:00;;;;;;;10.15;3.45;;;;;;;12.88;89.80;100431.16;4989661;28;20304;-66
2022/11/09 00:02:26;;;;;;;7.78;3.35;;;;;;;12.87;89.71;100427.53;4987396;28;20125;-62
2022/11/09 00:04:51;;;;;;;9.40;2.72;;;;;;;12.92;89.60;100427.59;4988263;28;20480;-63
2022/11/09 00:07:16;;;;;;;10.40;2.75;;;;;;;12.95;89.22;100432.63;4989853;28;20699;-62
2022/11/09 00:09:42;;;;;;;9.30;3.33;;;;;;;12.93;89.38;100426.53;5019612;28;20034;-62
2022/11/09 00:12:07;;;;;;;9.68;2.85;;;;;;;12.94;89.97;100428.19;4987099;28;20040;-64
2022/11/09 00:14:34;;;;;;;16.00;3.42;;;;;;;12.99;89.28;100428.25;4988305;28;20023;-63
2022/11/09 00:17:00;;;;;;;7.13;2.95;;;;;;;13.03;89.56;100417.56;4989468;28;20031;-63
2022/11/09 00:19:25;;;;;;;9.30;2.80;;;;;;;13.03;89.23;100422.22;4989211;28;20528;-62
2022/11/09 00:21:50;;;;;;;10.18;2.90;;;;;;;13.03;89.53;100411.19;4987841;28;20049;-65
2022/11/09 00:24:16;;;;;;;9.70;3.17;;;;;;;13.08;89.08;100420.38;4987753;28;20030;-63
2022/11/09 00:26:42;;;;;;;7.78;3.05;;;;;;;13.05;89.40;100423.63;4988250;28;20541;-62
2022/11/09 00:29:07;;;;;;;8.10;3.00;;;;;;;13.02;89.64;100421.38;4987737;28;20092;-63
2022/11/09 00:31:33;;;;;;;9.57;3.42;;;;;;;13.03;89.76;100420.31;4988965;28;20089;-62
2022/11/09 00:33:58;;;;;;;10.40;3.45;;;;;;;13.03;89.73;100417.56;4987911;28;20037;-63
2022/11/09 00:36:25;;;;;;;9.40;2.90;;;;;;;13.04;89.99;100419.22;4988614;28;20089;-64
2022/11/09 00:38:53;;;;;;;10.63;3.38;;;;;;;13.05;90.39;100417.28;4988282;28;20469;-64
2022/11/09 00:41:19;;;;;;;10.80;3.22;;;;;;;13.03;90.80;100417.56;4988838;28;20028;-64
2022/11/09 00:43:45;;;;;;;8.10;2.92;;;;;;;12.96;91.40;100414.16;4988158;28;20042;-64
2022/11/09 00:46:11;;;;;;;8.23;3.50;;;;;;;12.91;91.87;100409.41;5003403;28;20026;-64
2022/11/09 00:48:36;;;;;;;11.25;3.60;;;;;;;12.89;92.40;100417.09;4988899;28;20053;-62
2022/11/09 00:51:02;;;;;;;6.93;3.03;;;;;;;12.88;92.08;100420.97;4988749;28;20129;-63
2022/11/09 00:53:29;;;;;;;8.88;3.53;;;;;;;12.86;91.97;100420.38;4988065;28;20049;-62
2022/11/09 00:56:14;;;;;;;9.23;3.13;;;;;;;12.83;92.37;100411.78;4988072;28;20330;-66
2022/11/09 00:58:40;;;;;;;8.05;4.32;;;;;;;12.78;92.43;100417.25;4988601;28;20214;-64
2022/11/09 01:01:07;;;;;;;8.40;3.40;;;;;;;12.77;92.58;100419.13;4987246;28;20125;-64
2022/11/09 01:03:33;;;;;;;8.45;3.67;;;;;;;12.77;92.72;100415.56;4987394;28;20054;-63
2022/11/09 01:05:58;;;;;;;8.63;3.00;;;;;;;12.76;92.65;100417.47;4987121;28;20176;-62
2022/11/09 01:08:24;;;;;;;9.30;2.78;;;;;;;12.78;92.72;100415.31;4988177;28;20109;-62
2022/11/09 01:10:49;;;;;;;7.65;3.13;;;;;;;12.81;92.67;100413.97;4988929;28;20079;-67
2022/11/09 01:13:17;;;;;;;8.80;2.80;;;;;;;12.78;92.87;100417.25;4986769;28;20095;-62
2022/11/09 01:15:51;;;;;;;9.07;3.87;;;;;;;12.82;92.21;100416.44;4987359;28;20081;-62
2022/11/09 01:18:17;;;;;;;8.75;3.47;;;;;;;12.87;92.02;100410.16;4988757;28;20041;-63
2022/11/09 01:20:46;;;;;;;6.47;2.80;;;;;;;12.95;91.69;100426.28;4987351;28;20045;-64
2022/11/09 01:23:13;;;;;;;10.57;3.47;;;;;;;12.98;91.43;100434.03;4986397;28;20062;-64
2022/11/09 01:25:39;;;;;;;12.18;2.90;;;;;;;13.08;90.55;100434.16;4987401;28;20065;-62
2022/11/09 01:28:05;;;;;;;9.25;2.95;;;;;;;13.06;90.65;100425.31;4986270;28;20030;-65
2022/11/09 01:30:35;;;;;;;8.02;3.15;;;;;;;13.06;90.61;100429.97;5000715;28;20037;-63
2022/11/09 01:33:05;;;;;;;9.90;2.90;;;;;;;13.02;90.46;100440.69;4987917;28;20073;-63
2022/11/09 01:35:35;;;;;;;8.10;2.85;;;;;;;13.00;90.76;100442.88;4986583;28;20505;-62
2022/11/09 01:38:02;;;;;;;13.65;3.20;;;;;;;12.97;90.77;100438.69;4987348;28;20026;-62
2022/11/09 01:40:28;;;;;;;10.70;2.85;;;;;;;13.03;90.42;100436.84;4988001;28;20034;-63
2022/11/09 01:42:54;;;;;;;5.68;2.50;;;;;;;13.08;90.20;100436.91;4987592;28;20022;-62
2022/11/09 01:45:25;;;;;;;9.32;2.80;;;;;;;13.10;90.09;100436.66;4986282;28;20026;-63
2022/11/09 01:47:57;;;;;;;10.68;3.65;;;;;;;13.13;89.59;100441.66;4986775;28;20061;-63
2022/11/09 01:50:31;;;;;;;8.60;2.75;;;;;;;13.14;89.25;100443.31;4986070;28;20026;-63
2022/11/09 01:52:58;;;;;;;11.18;2.70;;;;;;;13.09;88.92;100429.47;4986959;28;20038;-63
2022/11/09 01:55:23;;;;;;;9.23;2.88;;;;;;;13.05;89.21;100431.91;4987192;28;20393;-62
2022/11/09 01:58:04;;;;;;;10.35;2.72;;;;;;;13.01;89.51;100429.91;4987283;28;20042;-62
2022/11/09 02:00:33;;;;;;;11.80;3.58;;;;;;;12.94;89.46;100422.69;4986279;28;20042;-62
2022/11/09 02:03:00;;;;;;;;;;;;;;;12.94;89.44;100413.59;4978157;28;20085;-63
2022/11/09 02:05:29;;;;;;;9.55;2.75;;;;;;;12.82;89.52;100413.69;4987413;28;19953;-63
2022/11/09 02:07:56;;;;;;;9.20;2.90;;;;;;;12.77;90.07;100424.66;4987066;28;20031;-63
2022/11/09 02:10:30;;;;;;;9.95;2.95;;;;;;;12.74;90.37;100433.44;4987798;28;20026;-63
2022/11/09 02:12:57;;;;;;;7.25;3.00;;;;;;;12.68;90.54;100423.44;4985484;28;20030;-62
2022/11/09 02:15:23;;;;;;;10.68;3.10;;;;;;;12.64;90.39;100425.88;4986890;28;20035;-62
2022/11/09 02:17:52;;;;;;;8.93;3.10;;;;;;;12.62;90.37;100417.03;4986674;28;20038;-63
2022/11/09 02:20:18;;;;;;;9.35;3.00;;;;;;;12.59;90.63;100431.31;4986893;28;20050;-62
2022/11/09 02:22:44;;;;;;;10.43;3.35;;;;;;;12.61;90.53;100439.31;4984587;28;20102;-63
2022/11/09 02:25:11;;;;;;;8.50;2.60;;;;;;;12.61;90.50;100445.66;4988105;28;20033;-62
2022/11/09 02:27:37;;;;;;;7.97;2.90;;;;;;;12.64;90.49;100438.81;4985923;28;20097;-62
2022/11/09 02:30:03;;;;;;;7.75;2.70;;;;;;;12.65;90.49;100430.28;4987071;28;20497;-63
2022/11/09 02:32:29;;;;;;;7.35;2.63;;;;;;;12.66;90.39;100431.13;4987526;28;20089;-63
2022/11/09 02:34:55;;;;;;;7.05;2.30;;;;;;;12.65;90.61;100443.22;4988417;28;20536;-64
2022/11/09 02:37:28;;;;;;;8.10;2.70;;;;;;;12.68;90.73;100456.50;4986229;28;20409;-65
2022/11/09 02:39:55;;;;;;;11.07;3.00;;;;;;;12.71;89.89;100440.28;4987719;28;20031;-62
2022/11/09 02:42:21;;;;;;;11.27;2.75;;;;;;;12.72;90.43;100443.88;4985876;28;20117;-62
2022/11/09 02:44:50;;;;;;;9.65;2.38;;;;;;;12.77;89.76;100445.88;4984668;28;20470;-65
2022/11/09 02:47:15;;;;;;;8.82;2.40;;;;;;;12.77;89.57;100432.09;4984890;28;20061;-62
2022/11/09 02:49:41;;;;;;;9.00;2.70;;;;;;;12.78;89.60;100436.53;4986856;28;20447;-62
2022/11/09 02:52:06;;;;;;;8.02;3.22;;;;;;;12.77;89.75;100430.16;4987556;28;20034;-62
2022/11/09 02:54:31;;;;;;;9.88;3.00;;;;;;;12.76;89.43;100427.66;4986985;28;20494;-62
2022/11/09 02:56:57;;;;;;;9.23;3.67;;;;;;;12.75;89.60;100418.56;4986623;28;20030;-63
2022/11/09 02:59:22;;;;;;;12.52;3.05;;;;;;;12.76;89.30;100422.16;4987853;28;20057;-63
2022/11/09 03:01:47;;;;;;;9.88;3.88;;;;;;;12.74;89.56;100433.44;4987765;28;20432;-62
2022/11/09 03:04:12;;;;;;;8.40;2.30;;;;;;;12.77;88.36;100419.13;4986589;28;20038;-63
2022/11/09 03:06:38;;;;;;;8.88;2.63;;;;;;;12.84;87.97;100432.75;4987633;28;20336;-64
2022/11/09 03:09:06;;;;;;;9.75;2.42;;;;;;;12.85;87.76;100429.72;4986813;28;20417;-63
2022/11/09 03:11:31;;;;;;;;;;;;;;;12.91;87.39;100441.66;4986147;28;20037;-62
2022/11/09 03:13:57;;;;;;;6.37;2.30;;;;;;;12.89;87.12;100446.59;4986489;28;19918;-62
2022/11/09 03:16:23;;;;;;;9.38;2.25;;;;;;;12.87;87.15;100454.28;4984846;28;20026;-64
2022/11/09 03:18:48;;;;;;;10.18;2.78;;;;;;;12.88;87.05;100448.53;4987663;28;20042;-64
2022/11/09 03:21:13;;;;;;;6.18;2.42;;;;;;;12.88;87.15;100462.31;4987508;28;20031;-66
2022/11/09 03:23:39;;;;;;;8.38;2.33;;;;;;;12.84;86.96;100466.66;4985265;28;20128;-64
2022/11/09 03:26:04;;;;;;;8.32;2.17;;;;;;;12.82;87.17;100468.81;4985868;28;20436;-64
2022/11/09 03:28:29;;;;;;;12.65;2.60;;;;;;;12.85;86.64;100467.47;4984701;28;20038;-63
2022/11/09 03:30:55;;;;;;;12.82;3.25;;;;;;;12.83;86.83;100470.50;4987286;28;20022;-63
2022/11/09 03:33:20;;;;;;;11.20;2.42;;;;;;;12.84;86.71;100468.56;4985927;28;20030;-62
2022/11/09 03:35:45;;;;;;;10.25;2.55;;;;;;;12.79;86.80;100469.34;4985422;28;20397;-64
2022/11/09 03:38:12;;;;;;;8.25;2.15;;;;;;;12.77;86.78;100471.50;4986075;28;20066;-63
2022/11/09 03:40:37;;;;;;;11.90;2.78;;;;;;;12.77;87.04;100477.00;4986233;28;20509;-65
2022/11/09 03:43:02;;;;;;;12.20;2.60;;;;;;;12.72;87.13;100486.06;4986521;28;20035;-65
2022/11/09 03:45:28;;;;;;;16.15;3.42;;;;;;;12.73;87.34;100481.38;4987710;28;20107;-63
2022/11/09 03:47:58;;;;;;;10.98;3.47;;;;;;;12.70;87.38;100495.66;4987247;28;20041;-62
2022/11/09 03:50:25;;;;;;;9.65;2.90;;;;;;;12.69;87.55;100497.59;4987117;28;20109;-66
2022/11/09 03:52:50;;;;;;;10.93;3.25;;;;;;;12.63;88.18;100508.78;4985325;28;20382;-63
2022/11/09 03:55:16;;;;;;;14.50;2.78;;;;;;;12.57;88.18;100494.09;4986469;28;20040;-62
2022/11/09 03:57:43;;;;;;;14.07;3.33;;;;;;;12.55;88.38;100507.28;4986218;28;20043;-62
2022/11/09 04:00:09;;;;;;;10.98;3.17;;;;;;;12.54;88.61;100513.06;4989993;28;20361;-65
2022/11/09 04:02:34;;;;;;;10.73;2.88;;;;;;;12.51;89.05;100519.06;4989622;28;20038;-62
2022/11/09 04:05:00;;;;;;;9.98;3.42;;;;;;;12.51;89.42;100516.31;4989569;28;20030;-63
2022/11/09 04:07:25;;;;;;;8.40;2.60;;;;;;;12.50;89.68;100525.66;4989208;28;20022;-63
2022/11/09 04:09:50;;;;;;;13.10;2.95;;;;;;;12.51;89.66;100528.16;4990284;28;20023;-62
2022/11/09 04:12:15;;;;;;;10.05;2.63;;;;;;;12.41;90.08;100533.50;4989238;28;20034;-65
2022/11/09 04:14:41;;;;;;;11.52;2.60;;;;;;;12.35;90.49;100529.81;4989147;28;20030;-63
2022/11/09 04:17:06;;;;;;;11.95;2.85;;;;;;;12.26;91.09;100525.81;4989878;28;20038;-64
2022/11/09 04:19:31;;;;;;;12.50;2.53;;;;;;;12.23;91.71;100531.84;4990099;28;20058;-65
2022/11/09 04:21:56;;;;;;;10.52;2.92;;;;;;;12.17;91.91;100535.59;4989859;28;20038;-62
2022/11/09 04:24:22;;;;;;;13.93;2.92;;;;;;;12.15;92.37;100535.00;4988233;28;20034;-62
2022/11/09 04:26:47;;;;;;;13.98;2.80;;;;;;;12.10;92.12;100540.41;4989439;28;20092;-62
2022/11/09 04:29:12;;;;;;;7.05;2.40;;;;;;;12.08;92.73;100550.84;4989541;28;20030;-62
2022/11/09 04:31:38;;;;;;;9.93;2.40;;;;;;;12.05;93.11;100548.56;4989997;28;20034;-63
2022/11/09 04:34:03;;;;;;;9.68;2.67;;;;;;;12.06;93.08;100547.47;4988875;28;20037;-64
2022/11/09 04:36:29;;;;;;;10.63;2.90;;;;;;;12.10;93.30;100549.50;4989076;28;20153;-64
2022/11/09 04:38:54;;;;;;;13.38;2.88;;;;;;;12.12;93.23;100546.50;4988883;28;20138;-61
2022/11/09 04:41:19;;;;;;;9.50;2.63;;;;;;;12.11;93.43;100553.06;4988547;28;20081;-66
2022/11/09 04:43:44;;;;;;;11.82;2.53;;;;;;;12.15;92.75;100540.50;4990812;28;20062;-63
2022/11/09 04:46:10;;;;;;;12.88;2.53;;;;;;;12.08;93.08;100539.84;4990240;28;20038;-66
2022/11/09 04:48:35;;;;;;;9.63;2.88;;;;;;;12.11;93.31;100553.06;4989959;28;20214;-62
2022/11/09 04:51:03;;;;;;;11.35;2.67;;;;;;;12.09;93.49;100558.00;4990190;28;20026;-65
2022/11/09 04:53:29;;;;;;;11.97;3.23;;;;;;;12.07;93.57;100560.19;4988498;28;20077;-63
2022/11/09 04:55:55;;;;;;;12.65;3.05;;;;;;;12.08;93.48;100553.59;4989104;28;20422;-64
2022/11/09 04:58:20;;;;;;;9.38;3.13;;;;;;;12.02;93.51;100551.84;4988784;28;20557;-64
2022/11/09 05:00:45;;;;;;;10.70;2.67;;;;;;;11.99;93.85;100541.31;4988885;28;20117;-63
2022/11/09 05:03:11;;;;;;;12.05;3.00;;;;;;;11.94;93.89;100542.06;4988668;28;20432;-63
2022/11/09 05:05:37;;;;;;;16.20;3.67;;;;;;;11.90;94.17;100538.13;4988839;28;20086;-63
2022/11/09 05:08:03;;;;;;;11.40;2.55;;;;;;;11.84;94.55;100544.63;4987640;28;20034;-62
2022/11/09 05:10:29;;;;;;;11.20;2.63;;;;;;;11.79;95.22;100552.75;4987147;28;20034;-62
2022/11/09 05:13:05;;;;;;;10.85;2.60;;;;;;;11.79;95.63;100547.25;4988140;28;20037;-63
2022/11/09 05:15:32;;;;;;;10.75;2.50;;;;;;;11.73;95.48;100546.31;4985146;28;20080;-63
2022/11/09 05:17:57;;;;;;;12.30;3.50;;;;;;;11.68;95.72;100546.22;4988201;28;20471;-63
2022/11/09 05:20:23;;;;;;;10.93;2.40;;;;;;;11.61;95.98;100549.13;4989027;28;20057;-63
2022/11/09 05:25:32;;;;;;;12.68;2.85;;;;;;;11.59;96.45;100544.91;4988853;28;20045;-63
2022/11/09 05:27:57;;;;;;;14.95;3.15;;;;;;;11.59;96.47;100542.16;4988513;28;20038;-65
2022/11/09 05:30:23;;;;;;;9.57;2.78;;;;;;;11.61;96.38;100546.38;4988615;28;20022;-63
2022/11/09 05:32:48;;;;;;;13.38;3.00;;;;;;;11.57;96.91;100545.19;4988603;28;20113;-62
2022/11/09 05:35:13;;;;;;;11.20;2.53;;;;;;;11.58;96.72;100541.34;4987134;28;20026;-62
2022/11/09 05:37:39;;;;;;;13.00;2.92;;;;;;;11.60;96.85;100543.84;4987919;28;20149;-62
2022/11/09 05:40:06;;;;;;;11.82;3.15;;;;;;;11.59;96.80;100544.91;4988014;28;20034;-62
2022/11/09 05:42:31;;;;;;;13.98;4.78;;;;;;;11.57;96.62;100549.84;4987661;28;20508;-62
2022/11/09 05:44:56;;;;;;;13.45;3.75;;;;;;;11.53;96.76;100544.00;4989207;28;20038;-62
2022/11/09 05:47:22;;;;;;;16.17;2.88;;;;;;;11.58;96.71;100546.00;4988003;28;20030;-65
2022/11/09 05:49:47;;;;;;;14.32;3.10;;;;;;;11.53;96.83;100540.41;4988849;28;20039;-65
2022/11/09 05:52:12;;;;;;;15.43;4.00;;;;;;;11.55;97.17;100552.81;5019510;28;20381;-63
2022/11/09 05:54:37;;;;;;;16.80;3.45;;;;;;;11.53;97.00;100554.16;4987696;28;20040;-65
2022/11/09 05:57:03;;;;;;;13.98;3.20;;;;;;;11.52;97.11;100547.81;4987634;28;20593;-63
2022/11/09 05:59:29;;;;;;;13.65;2.90;;;;;;;11.50;96.83;100549.97;4987663;28;20046;-63
2022/11/09 06:01:54;;;;;;;12.43;3.45;;;;;;;11.46;97.29;100547.97;4987692;28;20030;-63
2022/11/09 06:04:19;;;;;;;10.07;3.55;;;;;;;11.47;96.93;100550.47;4988003;28;20394;-67
2022/11/09 06:06:44;;;;;;;9.93;2.90;;;;;;;11.43;97.41;100543.78;4987131;28;20046;-63
2022/11/09 06:09:10;;;;;;;15.07;3.20;;;;;;;11.44;97.68;100551.78;4987471;28;20540;-63
2022/11/09 06:11:35;;;;;;;13.85;3.22;;;;;;;11.42;97.40;100548.44;4986935;28;20026;-63
2022/11/09 06:14:00;;;;;;;10.20;3.53;;;;;;;11.44;96.93;100561.94;4988100;28;20084;-62
2022/11/09 06:16:26;;;;;;;13.85;2.70;;;;;;;11.39;97.60;100548.94;4988007;28;20026;-62
2022/11/09 06:18:51;;;;;;;12.00;2.90;;;;;;;11.33;97.69;100555.41;4988112;28;20461;-63
2022/11/09 06:21:16;;;;;;;10.38;2.95;;;;;;;11.33;97.92;100554.56;4988025;28;20026;-62
2022/11/09 06:23:42;;;;;;;14.52;3.33;;;;;;;11.32;98.19;100556.50;4987515;28;20512;-62
2022/11/09 06:26:09;;;;;;;16.60;3.22;;;;;;;11.32;98.32;100559.25;4986920;28;20469;-63
2022/11/09 06:28:35;;;;;;;13.50;3.40;;;;;;;11.27;98.29;100570.13;4988319;28;20449;-63
2022/11/09 06:31:02;;;;;;;14.25;2.85;;;;;;;11.23;98.64;100563.44;4987020;28;20026;-63
2022/11/09 06:33:32;;;;;;;14.48;3.15;;;;;;;11.25;98.94;100564.00;4987044;28;20022;-65
2022/11/09 06:35:58;;;;;;;11.60;2.95;;;;;;;11.23;98.96;100566.19;4987851;28;20424;-62
2022/11/09 06:38:27;;;;;;;12.18;3.15;;;;;;;11.21;99.30;100573.03;4986133;28;20500;-65
2022/11/09 06:40:54;;;;;;;11.68;3.25;;;;;;;11.20;99.27;100577.66;4987158;28;20022;-63
2022/11/09 06:43:20;;;;;;;13.05;3.38;;;;;;;11.21;99.18;100575.78;4987264;28;20100;-66
2022/11/09 06:45:45;;;;;;;14.38;3.58;;;;;;;11.21;99.49;100570.28;4987916;28;20505;-62
2022/11/09 06:48:11;;;;;;;14.73;3.30;;;;;;;11.25;99.55;100579.69;4985280;28;20712;-64
2022/11/09 06:50:36;;;;;;;13.85;3.15;;;;;;;11.26;99.18;100576.72;4986772;28;20042;-63
2022/11/09 06:53:04;;;;;;;12.10;3.50;;;;;;;11.27;99.13;100567.38;4984364;28;20033;-63
2022/11/09 06:55:31;;;;;;;15.30;3.90;;;;;;;11.29;99.31;100573.47;4986378;28;20358;-65
2022/11/09 06:57:57;;;;;;;10.57;2.95;;;;;;;11.29;99.02;100580.88;4986121;28;20038;-64
2022/11/09 07:00:24;;;;;;;13.38;2.83;;;;;;;11.28;99.76;100574.53;4986046;28;20493;-64
2022/11/09 07:02:50;;;;;;;11.87;3.13;;;;;;;11.29;99.34;100575.38;4988058;28;20376;-66
2022/11/09 07:05:16;;;;;;;12.02;2.80;;;;;;;11.28;99.72;100582.78;4988093;28;20030;-63
2022/11/09 07:07:41;;;;;;;14.52;3.00;;;;;;;11.27;99.62;100581.13;4987268;28;20111;-64
2022/11/09 07:10:06;;;;;;;14.15;3.40;;;;;;;11.26;99.65;100586.88;4986305;28;20054;-63
2022/11/09 07:12:33;;;;;;;12.10;3.58;;;;;;;11.26;99.63;100587.72;4986225;28;20441;-62
2022/11/09 07:14:59;;;;;;;14.43;3.50;;;;;;;11.23;99.90;100590.94;4987565;28;20453;-62
2022/11/09 07:17:24;;;;;;;15.20;3.00;;;;;;;11.23;99.94;100599.19;4986976;28;20050;-64
2022/11/09 07:19:49;;;;;;;15.27;3.58;;;;;;;11.31;99.77;100595.22;4987270;28;20030;-66
2022/11/09 07:22:15;;;;;;;12.10;3.10;;;;;;;11.27;99.76;100596.78;4987490;28;20088;-63
2022/11/09 07:24:40;;;;;;;14.68;3.53;;;;;;;11.28;99.67;100604.78;4986810;28;20477;-65
2022/11/09 07:27:05;;;;;;;13.27;3.05;;;;;;;11.33;99.61;100610.41;4986723;28;20042;-63
2022/11/09 07:29:30;;;;;;;15.00;3.67;;;;;;;11.37;99.28;100608.84;4986979;28;20527;-63
2022/11/09 07:31:56;;;;;;;14.25;2.97;;;;;;;11.42;99.13;100606.19;4987613;28;20041;-62
2022/11/09 07:34:21;;;;;;;11.18;3.35;;;;;;;11.46;98.67;100609.31;4989115;28;20076;-63
2022/11/09 07:36:46;;;;;;;15.75;4.10;;;;;;;11.48;98.19;100612.63;4991278;28;20032;-62
2022/11/09 07:39:11;;;;;;;14.63;2.88;;;;;;;11.52;97.95;100607.50;4989107;28;20069;-63
2022/11/09 07:41:37;;;;;;;12.93;3.17;;;;;;;11.54;97.31;100611.66;4990267;28;20369;-66
2022/11/09 07:44:02;;;;;;;11.45;3.00;;;;;;;11.54;97.75;100608.09;4990929;28;20058;-64
2022/11/09 07:46:28;;;;;;;13.85;3.08;;;;;;;11.59;96.90;100613.69;4990081;28;20076;-63
2022/11/09 07:48:53;;;;;;;11.75;2.65;;;;;;;11.60;97.14;100610.69;4990759;28;20035;-64
2022/11/09 07:51:18;;;;;;;13.45;3.03;;;;;;;11.64;96.96;100608.28;5005835;28;20088;-62
2022/11/09 07:53:44;;;;;;;14.07;3.50;;;;;;;11.63;96.92;100617.63;4990247;28;20042;-62
2022/11/09 07:56:09;;;;;;;14.93;4.28;;;;;;;11.61;97.47;100617.88;4990089;28;20393;-65
2022/11/09 07:58:35;;;;;;;12.63;3.30;;;;;;;11.64;96.80;100625.63;4990299;28;20034;-63
2022/11/09 08:01:05;;;;;;;12.30;3.28;;;;;;;11.66;97.00;100619.91;4990473;28;20105;-62
2022/11/09 08:03:30;;;;;;;11.98;3.20;;;;;;;11.73;96.93;100628.00;4988662;28;20234;-62
2022/11/09 08:05:56;;;;;;;14.05;3.35;;;;;;;11.79;96.09;100632.53;4989296;28;20562;-62
2022/11/09 08:08:21;;;;;;;13.75;3.10;;;;;;;11.84;95.58;100638.16;4986772;28;20041;-62
2022/11/09 08:10:51;;;;;;;14.10;3.25;;;;;;;11.83;95.79;100640.09;4989797;28;20026;-63
2022/11/09 08:13:16;;;;;;;9.63;2.90;;;;;;;11.83;95.91;100637.34;4989667;28;20034;-63
2022/11/09 08:15:42;;;;;;;17.08;3.72;;;;;;;11.88;95.45;100634.69;4989898;28;20033;-62
2022/11/09 08:18:11;;;;;;;13.63;3.00;;;;;;;11.92;95.90;100638.63;4990183;28;20073;-64
2022/11/09 08:20:37;;;;;;;13.38;3.35;;;;;;;12.03;94.91;100638.84;4990531;28;20113;-62
2022/11/09 08:23:03;;;;;;;10.93;3.95;;;;;;;12.08;94.46;100648.03;4987089;28;20509;-63
2022/11/09 08:25:28;;;;;;;14.13;3.25;;;;;;;12.17;93.81;100646.56;4989742;28;20030;-63
2022/11/09 08:27:57;;;;;;;13.05;3.60;;;;;;;12.42;93.24;100657.22;4990090;28;20457;-64
2022/11/09 08:30:22;;;;;;;;;;;;;;;12.69;92.44;100651.88;4990562;28;20480;-62
2022/11/09 08:32:48;;;;;;;14.00;3.65;;;;;;;13.02;90.72;100660.41;4989122;28;19964;-63
2022/11/09 08:35:16;;;;;;;12.75;3.28;;;;;;;13.52;86.62;100665.03;4989603;28;20030;-65
2022/11/09 08:37:42;;;;;;;11.30;2.83;;;;;;;13.85;84.78;100669.63;4989030;28;20034;-62
2022/11/09 08:40:08;;;;;;;11.45;3.00;;;;;;;14.08;83.31;100663.00;4989594;28;20042;-64
2022/11/09 08:42:34;;;;;;;12.27;3.20;;;;;;;14.05;83.21;100658.84;4989652;28;20089;-63
2022/11/09 08:44:59;;;;;;;12.77;3.10;;;;;;;14.06;83.03;100659.66;4989003;28;20030;-65
2022/11/09 08:47:25;;;;;;;14.38;3.63;;;;;;;13.99;83.32;100669.00;4989428;28;20030;-63
2022/11/09 08:49:50;;;;;;;11.10;2.65;;;;;;;14.44;81.64;100662.28;4990077;28;20026;-63
2022/11/09 08:52:16;;;;;;;12.85;3.60;;;;;;;14.94;78.61;100661.13;4988992;28;20038;-63
2022/11/09 08:54:42;;;;;;;16.77;3.30;;;;;;;15.03;77.14;100658.69;4988960;28;20149;-62
2022/11/09 08:57:07;;;;;;;16.48;4.03;;;;;;;14.70;79.56;100668.94;4988798;28;20089;-63
2022/11/09 08:59:33;;;;;;;12.25;2.83;;;;;;;14.92;78.68;100668.03;4989832;28;20018;-63
2022/11/09 09:01:58;;;;;;;10.95;2.90;;;;;;;14.81;77.89;100669.03;4989085;28;20660;-63
2022/11/09 09:04:23;;;;;;;11.88;3.22;;;;;;;14.66;78.64;100666.97;4989421;28;20059;-64
2022/11/09 09:06:49;;;;;;;10.00;2.67;;;;;;;15.22;76.77;100664.66;4989785;28;20088;-63
2022/11/09 09:09:14;;;;;;;11.80;2.58;;;;;;;15.82;74.27;100663.38;4989390;28;20413;-62
2022/11/09 09:11:39;;;;;;;11.45;2.55;;;;;;;16.17;72.26;100656.28;5003626;28;20461;-65
2022/11/09 09:14:05;;;;;;;10.18;2.38;;;;;;;16.83;68.52;100662.00;4989930;28;20041;-63
2022/11/09 09:16:30;;;;;;;10.77;3.42;;;;;;;16.49;68.95;100658.88;4988881;28;20109;-62
2022/11/09 09:18:55;;;;;;;10.52;3.17;;;;;;;16.25;70.49;100664.06;4988844;28;20034;-62
2022/11/09 09:21:21;;;;;;;11.35;3.30;;;;;;;16.16;70.60;100665.69;4989255;28;20050;-63
2022/11/09 09:23:48;;;;;;;8.57;2.38;;;;;;;16.55;69.23;100660.53;4988837;28;20088;-61
2022/11/09 09:26:13;;;;;;;11.77;3.47;;;;;;;16.75;68.19;100668.91;4987648;28;20115;-62
2022/11/09 09:28:39;;;;;;;10.32;2.20;;;;;;;16.26;69.20;100671.28;4989286;28;20580;-62
2022/11/09 09:31:05;;;;;;;15.40;3.08;;;;;;;15.97;70.42;100674.53;4989087;28;20510;-63
2022/11/09 09:33:30;;;;;;;12.90;2.97;;;;;;;16.30;69.75;100672.41;4988745;28;20045;-62
2022/11/09 09:35:57;;;;;;;11.20;3.38;;;;;;;16.05;69.78;100673.97;4988500;28;20046;-64
2022/11/09 09:38:26;;;;;;;15.35;3.30;;;;;;;15.88;71.69;100673.38;4988335;28;20040;-63
2022/11/09 09:40:59;;;;;;;14.88;2.95;;;;;;;16.25;69.09;100689.00;4986517;28;20033;-62
2022/11/09 09:43:36;;;;;;;11.75;3.28;;;;;;;15.63;71.27;100689.81;4988745;28;20030;-62
2022/11/09 09:46:05;;;;;;;12.03;3.40;;;;;;;16.01;70.05;100686.69;4988485;28;20104;-62
2022/11/09 09:48:49;;;;;;;15.32;2.60;;;;;;;16.95;66.87;100684.72;4988624;28;20465;-62
2022/11/09 09:51:23;;;;;;;12.30;2.90;;;;;;;17.29;64.65;100700.81;4988900;28;20060;-63
2022/11/09 09:53:55;;;;;;;10.60;2.30;;;;;;;16.94;64.91;100696.94;4988218;28;20080;-65
2022/11/09 09:56:25;;;;;;;9.13;2.45;;;;;;;16.64;66.53;100710.75;4986456;28;20408;-66
2022/11/09 09:59:06;;;;;;;11.02;2.40;;;;;;;17.11;65.57;100707.75;4988462;28;20121;-63
2022/11/09 10:01:37;;;;;;;12.23;2.30;;;;;;;17.41;63.36;100709.69;4988517;28;20034;-62
2022/11/09 10:04:14;;;;;;;11.32;2.70;;;;;;;16.54;65.90;100717.94;5002871;28;20061;-64
2022/11/09 10:06:59;;;;;;;11.68;2.47;;;;;;;16.17;67.86;100715.31;4987850;28;20043;-64
2022/11/09 10:09:44;;;;;;;9.55;2.72;;;;;;;15.50;69.47;100705.78;4986262;28;20137;-62
2022/11/09 10:12:48;;;;;;;13.85;2.70;;;;;;;15.55;71.87;100714.13;4988277;28;20100;-63
2022/11/09 10:15:19;;;;;;;12.43;2.80;;;;;;;16.63;66.01;100711.84;4968044;28;20035;-62
2022/11/09 10:18:31;;;;;;;15.10;2.90;;;;;;;16.83;66.03;100709.97;4968067;28;20402;-62
2022/11/09 10:21:02;;;;;;;12.85;2.75;;;;;;;16.85;64.22;100709.69;4984584;28;20437;-62
2022/11/09 10:23:30;;;;;;;12.98;2.97;;;;;;;16.52;64.70;100716.50;4987257;28;20042;-62
2022/11/09 10:26:16;;;;;;;9.38;2.38;;;;;;;16.28;67.12;100718.97;4987465;28;20023;-62
2022/11/09 10:28:44;;;;;;;15.18;2.80;;;;;;;16.66;65.95;100711.28;4986762;28;20026;-65
2022/11/09 10:31:19;;;;;;;11.88;2.78;;;;;;;17.25;63.44;100708.03;4987867;28;20050;-62
2022/11/09 10:33:59;;;;;;;12.52;2.70;;;;;;;16.86;64.84;100725.22;4988077;28;20477;-62
2022/11/09 10:36:36;;;;;;;12.25;2.20;;;;;;;16.20;66.14;100713.94;4987233;28;20049;-62
2022/11/09 10:39:01;;;;;;;9.43;2.67;;;;;;;16.66;65.10;100720.44;4986758;28;20101;-62
2022/11/09 10:41:53;;;;;;;10.30;2.10;;;;;;;16.88;64.65;100719.38;4986935;28;20421;-65
2022/11/09 10:44:19;;;;;;;12.43;3.05;;;;;;;16.32;65.04;100725.59;4987339;28;20042;-65
2022/11/09 10:47:05;;;;;;;12.98;2.33;;;;;;;15.79;67.88;100728.44;4988163;28;20038;-62
2022/11/09 10:49:30;;;;;;;8.85;2.20;;;;;;;15.40;68.24;100741.69;4986986;28;20034;-62
2022/11/09 10:51:56;;;;;;;11.82;2.58;;;;;;;15.12;69.45;100739.28;4987554;28;20426;-62
2022/11/09 10:54:25;;;;;;;11.75;2.58;;;;;;;15.02;69.86;100738.06;4986983;28;20030;-63
2022/11/09 10:57:00;;;;;;;9.10;2.10;;;;;;;14.88;71.51;100749.81;4986573;28;20083;-64
2022/11/09 10:59:51;;;;;;;11.10;2.75;;;;;;;14.74;71.79;100741.13;4987469;28;20036;-64
2022/11/09 11:02:25;;;;;;;9.45;2.05;;;;;;;14.59;72.10;100740.94;4986472;28;20042;-64
2022/11/09 11:05:16;;;;;;;11.38;2.53;;;;;;;14.35;73.98;100755.03;4986931;28;20045;-63
2022/11/09 11:07:42;;;;;;;12.60;2.65;;;;;;;14.18;73.70;100745.97;4966279;28;20047;-62
2022/11/09 11:10:19;;;;;;;10.73;2.35;;;;;;;14.14;74.81;100751.19;4970090;28;20078;-66
2022/11/09 11:12:52;;;;;;;10.95;2.60;;;;;;;14.06;74.79;100751.63;4972321;28;20030;-65
2022/11/09 11:15:36;;;;;;;8.50;2.45;;;;;;;14.12;74.44;100760.81;4971708;28;20022;-65
2022/11/09 11:18:04;;;;;;;9.35;2.15;;;;;;;14.11;74.26;100754.47;4980184;28;20054;-65
2022/11/09 11:20:31;;;;;;;;;;;;;;;14.23;73.95;100749.63;4978610;28;20034;-65
2022/11/09 11:23:17;;;;;;;9.00;2.22;;;;;;;14.20;74.38;100757.63;4970608;28;19929;-66
2022/11/09 11:25:54;;;;;;;9.15;2.17;;;;;;;14.35;73.84;100746.75;4970001;28;20029;-65